sensor_id;sensor_type;location;lat;lon;timestamp;pressure;altitude;pressure_sealevel;temperature;humidity
58975;BME280;44751;52.236;5.178;2023-02-23T05:09:38;101203.25;;;6.96;100.00
58975;BME280;44751;52.236;5.178;2023-02-23T05:12:18;101214.53;;;6.90;100.00
58975;BME280;44751;52.236;5.178;2023-02-23T05:14:45;101208.78;;;6.85;100.00
58975;BME280;44751;52.236;5.178;2023-02-23T05:17:19;101216.56;;;6.78;100.00
58975;BME280;44751;52.236;5.178;2023-02-23T05:19:51;101213.25;;;6.94;100.00
58975;BME280;44751;52.236;5.178;2023-02-23T05:22:35;101217.19;;;7.00;100.00
58975;BME280;44751;52.236;5.178;2023-02-23T05:25:19;101221.28;;;7.04;100.00
58975;BME280;44751;52.236;5.178;2023-02-23T05:28:08;101219.56;;;7.13;100.00
58975;BME280;44751;52.236;5.178;2023-02-23T05:30:41;101221.25;;;7.14;100.00
58975;BME280;44751;52.236;5.178;2023-02-23T06:04:21;101231.44;;;7.10;100.00
58975;BME280;44751;52.236;5.178;2023-02-23T06:06:54;101224.91;;;7.13;100.00
58975;BME280;44751;52.236;5.178;2023-02-23T06:15:14;101234.53;;;7.06;100.00
58975;BME280;44751;52.236;5.178;2023-02-23T06:17:41;101225.63;;;7.05;100.00
58975;BME280;44751;52.236;5.178;2023-02-23T06:20:08;101227.59;;;7.13;100.00
58975;BME280;44751;52.236;5.178;2023-02-23T06:22:35;101231.88;;;7.06;100.00
58975;BME280;44751;52.236;5.178;2023-02-23T06:25:02;101240.91;;;7.05;100.00
58975;BME280;44751;52.236;5.178;2023-02-23T06:27:32;101247.78;;;7.17;100.00
58975;BME280;44751;52.236;5.178;2023-02-23T06:30:01;101249.50;;;7.08;100.00
58975;BME280;44751;52.236;5.178;2023-02-23T06:32:28;101251.50;;;7.06;100.00
58975;BME280;44751;52.236;5.178;2023-02-23T06:34:55;101258.09;;;7.12;100.00
58975;BME280;44751;52.236;5.178;2023-02-23T06:37:22;101257.25;;;7.12;100.00
58975;BME280;44751;52.236;5.178;2023-02-23T06:39:49;101264.13;;;7.24;100.00
58975;BME280;44751;52.236;5.178;2023-02-23T06:42:36;101262.50;;;7.13;100.00
58975;BME280;44751;52.236;5.178;2023-02-23T06:45:05;101266.47;;;7.09;100.00
58975;BME280;44751;52.236;5.178;2023-02-23T06:47:39;101268.69;;;7.14;100.00
58975;BME280;44751;52.236;5.178;2023-02-23T06:50:17;101265.88;;;7.05;100.00
58975;BME280;44751;52.236;5.178;2023-02-23T06:52:50;101274.25;;;7.02;100.00
58975;BME280;44751;52.236;5.178;2023-02-23T06:55:22;101274.06;;;7.04;100.00
58975;BME280;44751;52.236;5.178;2023-02-23T06:58:03;101265.47;;;7.00;100.00
58975;BME280;44751;52.236;5.178;2023-02-23T07:00:34;101269.00;;;7.10;100.00
58975;BME280;44751;52.236;5.178;2023-02-23T07:03:03;101272.22;;;7.14;100.00
58975;BME280;44751;52.236;5.178;2023-02-23T07:05:33;101277.88;;;7.11;100.00
58975;BME280;44751;52.236;5.178;2023-02-23T07:08:01;101284.38;;;7.08;100.00
58975;BME280;44751;52.236;5.178;2023-02-23T07:10:28;101295.63;;;7.22;100.00
58975;BME280;44751;52.236;5.178;2023-02-23T07:12:59;101300.81;;;7.33;100.00
58975;BME280;44751;52.236;5.178;2023-02-23T07:15:26;101303.69;;;7.22;100.00
58975;BME280;44751;52.236;5.178;2023-02-23T07:17:53;101305.81;;;7.18;100.00
58975;BME280;44751;52.236;5.178;2023-02-23T07:20:21;101314.41;;;7.22;100.00
58975;BME280;44751;52.236;5.178;2023-02-23T07:22:49;101319.09;;;7.20;100.00
58975;BME280;44751;52.236;5.178;2023-02-23T07:25:19;101317.38;;;7.29;100.00
58975;BME280;44751;52.236;5.178;2023-02-23T07:27:53;101317.66;;;7.26;100.00
58975;BME280;44751;52.236;5.178;2023-02-23T07:30:20;101318.66;;;7.34;100.00
58975;BME280;44751;52.236;5.178;2023-02-23T07:32:49;101326.56;;;7.26;100.00
58975;BME280;44751;52.236;5.178;2023-02-23T07:35:17;101326.72;;;7.25;100.00
58975;BME280;44751;52.236;5.178;2023-02-23T07:37:43;101331.22;;;7.34;100.00
58975;BME280;44751;52.236;5.178;2023-02-23T07:40:11;101340.41;;;7.31;100.00
58975;BME280;44751;52.236;5.178;2023-02-23T07:42:37;101333.78;;;7.16;100.00
58975;BME280;44751;52.236;5.178;2023-02-23T07:45:05;101345.50;;;7.34;100.00
58975;BME280;44751;52.236;5.178;2023-02-23T07:47:32;101340.13;;;7.34;100.00
58975;BME280;44751;52.236;5.178;2023-02-23T07:49:59;101349.09;;;7.43;100.00
58975;BME280;44751;52.236;5.178;2023-02-23T07:52:27;101336.81;;;7.51;100.00
58975;BME280;44751;52.236;5.178;2023-02-23T07:58:20;101339.31;;;7.62;100.00
58975;BME280;44751;52.236;5.178;2023-02-23T08:00:47;101346.78;;;7.58;100.00
58975;BME280;44751;52.236;5.178;2023-02-23T08:03:17;101357.84;;;7.55;100.00
58975;BME280;44751;52.236;5.178;2023-02-23T08:05:44;101353.28;;;7.66;100.00
58975;BME280;44751;52.236;5.178;2023-02-23T08:08:30;101359.66;;;7.65;100.00
58975;BME280;44751;52.236;5.178;2023-02-23T08:11:23;101359.22;;;7.69;100.00
58975;BME280;44751;52.236;5.178;2023-02-23T08:14:00;101372.94;;;7.66;100.00
58975;BME280;44751;52.236;5.178;2023-02-23T08:16:39;101366.91;;;7.82;100.00
58975;BME280;44751;52.236;5.178;2023-02-23T08:19:08;101363.94;;;7.85;100.00
58975;BME280;44751;52.236;5.178;2023-02-23T08:21:41;101371.94;;;7.67;100.00
58975;BME280;44751;52.236;5.178;2023-02-23T08:24:11;101370.69;;;7.61;100.00
58975;BME280;44751;52.236;5.178;2023-02-23T08:26:52;101372.69;;;7.59;100.00
58975;BME280;44751;52.236;5.178;2023-02-23T08:29:22;101370.00;;;7.59;100.00
58975;BME280;44751;52.236;5.178;2023-02-23T16:14:48;101554.97;;;6.62;100.00
58975;BME280;44751;52.236;5.178;2023-02-23T16:17:25;101551.56;;;6.50;100.00
58975;BME280;44751;52.236;5.178;2023-02-23T16:20:12;101559.34;;;6.63;100.00
58975;BME280;44751;52.236;5.178;2023-02-23T16:22:43;101557.41;;;6.65;100.00
58975;BME280;44751;52.236;5.178;2023-02-23T16:25:15;101564.28;;;6.58;100.00
58975;BME280;44751;52.236;5.178;2023-02-23T16:27:44;101562.72;;;6.55;100.00
58975;BME280;44751;52.236;5.178;2023-02-23T16:30:20;101569.25;;;6.63;100.00
58975;BME280;44751;52.236;5.178;2023-02-23T16:32:48;101570.63;;;6.57;100.00
58975;BME280;44751;52.236;5.178;2023-02-23T16:35:35;101578.63;;;6.47;100.00
58975;BME280;44751;52.236;5.178;2023-02-23T16:40:43;101576.22;;;6.44;100.00
58975;BME280;44751;52.236;5.178;2023-02-23T16:43:13;101586.38;;;6.40;100.00
58975;BME280;44751;52.236;5.178;2023-02-23T16:45:40;101579.22;;;6.29;100.00
58975;BME280;44751;52.236;5.178;2023-02-23T16:48:14;101584.19;;;6.34;100.00
58975;BME280;44751;52.236;5.178;2023-02-23T16:50:47;101585.59;;;6.28;100.00
58975;BME280;44751;52.236;5.178;2023-02-23T16:53:15;101587.56;;;6.26;100.00
58975;BME280;44751;52.236;5.178;2023-02-23T16:56:02;101593.69;;;6.17;100.00
58975;BME280;44751;52.236;5.178;2023-02-23T16:58:41;101588.81;;;6.22;100.00
58975;BME280;44751;52.236;5.178;2023-02-23T17:01:13;101591.81;;;6.07;100.00
58975;BME280;44751;52.236;5.178;2023-02-23T17:03:41;101592.53;;;6.10;100.00
58975;BME280;44751;52.236;5.178;2023-02-23T17:06:09;101589.19;;;6.17;100.00
58975;BME280;44751;52.236;5.178;2023-02-23T17:08:38;101590.06;;;6.18;100.00
58975;BME280;44751;52.236;5.178;2023-02-23T17:11:07;101599.47;;;6.12;100.00
58975;BME280;44751;52.236;5.178;2023-02-23T17:13:34;101598.91;;;6.18;100.00
58975;BME280;44751;52.236;5.178;2023-02-23T17:16:05;101593.56;;;6.18;100.00
58975;BME280;44751;52.236;5.178;2023-02-23T17:18:36;101603.03;;;6.23;100.00
58975;BME280;44751;52.236;5.178;2023-02-23T17:21:11;101601.91;;;6.25;100.00
58975;BME280;44751;52.236;5.178;2023-02-23T17:23:39;101606.31;;;6.05;100.00
58975;BME280;44751;52.236;5.178;2023-02-23T17:26:13;101606.19;;;6.06;100.00
58975;BME280;44751;52.236;5.178;2023-02-23T17:28:41;101603.38;;;6.08;100.00
58975;BME280;44751;52.236;5.178;2023-02-23T17:31:14;101607.78;;;5.98;100.00
58975;BME280;44751;52.236;5.178;2023-02-23T17:33:43;101603.41;;;5.97;100.00
58975;BME280;44751;52.236;5.178;2023-02-23T17:36:12;101608.69;;;5.87;100.00
58975;BME280;44751;52.236;5.178;2023-02-23T17:38:40;101608.44;;;5.90;100.00
58975;BME280;44751;52.236;5.178;2023-02-23T17:41:14;101606.22;;;5.95;100.00
58975;BME280;44751;52.236;5.178;2023-02-23T17:43:41;101612.38;;;5.86;100.00
58975;BME280;44751;52.236;5.178;2023-02-23T17:46:09;101608.81;;;5.85;100.00
58975;BME280;44751;52.236;5.178;2023-02-23T17:48:46;101613.47;;;5.83;100.00
58975;BME280;44751;52.236;5.178;2023-02-23T17:51:13;101620.84;;;5.91;100.00
58975;BME280;44751;52.236;5.178;2023-02-23T17:53:42;101619.78;;;5.82;100.00
58975;BME280;44751;52.236;5.178;2023-02-23T17:56:09;101612.41;;;5.74;100.00
58975;BME280;44751;52.236;5.178;2023-02-23T17:58:39;101607.44;;;5.69;100.00
58975;BME280;44751;52.236;5.178;2023-02-23T18:01:07;101614.34;;;5.72;100.00
58975;BME280;44751;52.236;5.178;2023-02-23T18:03:35;101628.38;;;5.64;100.00
58975;BME280;44751;52.236;5.178;2023-02-23T18:06:09;101621.59;;;5.60;100.00
58975;BME280;44751;52.236;5.178;2023-02-23T18:08:40;101610.28;;;5.56;100.00
58975;BME280;44751;52.236;5.178;2023-02-23T18:11:07;101619.50;;;5.64;100.00
58975;BME280;44751;52.236;5.178;2023-02-23T18:13:34;101627.16;;;5.68;100.00
58975;BME280;44751;52.236;5.178;2023-02-23T18:16:04;101632.88;;;5.64;100.00
58975;BME280;44751;52.236;5.178;2023-02-23T18:18:34;101634.56;;;5.65;100.00
58975;BME280;44751;52.236;5.178;2023-02-23T18:21:01;101636.19;;;5.67;100.00
58975;BME280;44751;52.236;5.178;2023-02-23T18:23:29;101623.88;;;5.65;100.00
58975;BME280;44751;52.236;5.178;2023-02-23T18:26:23;101627.66;;;5.62;100.00
58975;BME280;44751;52.236;5.178;2023-02-23T18:28:52;101631.84;;;5.76;100.00
58975;BME280;44751;52.236;5.178;2023-02-23T18:31:24;101642.06;;;5.82;100.00
58975;BME280;44751;52.236;5.178;2023-02-23T18:33:54;101634.84;;;5.62;100.00
58975;BME280;44751;52.236;5.178;2023-02-23T18:36:23;101647.59;;;5.69;100.00
58975;BME280;44751;52.236;5.178;2023-02-23T18:38:50;101638.00;;;5.67;100.00
58975;BME280;44751;52.236;5.178;2023-02-23T18:41:18;101638.34;;;5.62;100.00
58975;BME280;44751;52.236;5.178;2023-02-23T18:43:45;101646.75;;;5.69;100.00
58975;BME280;44751;52.236;5.178;2023-02-23T18:46:14;101639.56;;;5.69;100.00
58975;BME280;44751;52.236;5.178;2023-02-23T20:07:55;101623.63;;;4.21;100.00
58975;BME280;44751;52.236;5.178;2023-02-23T20:10:21;101618.88;;;4.13;100.00
58975;BME280;44751;52.236;5.178;2023-02-23T20:12:53;101615.56;;;3.98;100.00
58975;BME280;44751;52.236;5.178;2023-02-23T20:15:23;101618.81;;;3.90;100.00
58975;BME280;44751;52.236;5.178;2023-02-23T20:17:49;101619.28;;;3.84;100.00
58975;BME280;44751;52.236;5.178;2023-02-23T20:20:16;101618.09;;;3.88;100.00
58975;BME280;44751;52.236;5.178;2023-02-23T20:22:51;101620.50;;;3.91;100.00
58975;BME280;44751;52.236;5.178;2023-02-23T20:25:17;101611.28;;;3.95;100.00
58975;BME280;44751;52.236;5.178;2023-02-23T20:27:45;101605.34;;;3.92;100.00
58975;BME280;44751;52.236;5.178;2023-02-23T20:30:34;101618.31;;;3.85;100.00
58975;BME280;44751;52.236;5.178;2023-02-23T20:33:03;101621.44;;;3.79;100.00
58975;BME280;44751;52.236;5.178;2023-02-23T20:35:38;101615.00;;;3.81;100.00
58975;BME280;44751;52.236;5.178;2023-02-23T20:38:07;101606.72;;;3.73;100.00
58975;BME280;44751;52.236;5.178;2023-02-23T20:40:35;101602.19;;;3.62;100.00
58975;BME280;44751;52.236;5.178;2023-02-23T20:43:03;101597.94;;;3.59;100.00
58975;BME280;44751;52.236;5.178;2023-02-23T20:45:30;101605.44;;;3.54;100.00
58975;BME280;44751;52.236;5.178;2023-02-23T20:48:00;101601.81;;;3.55;100.00
58975;BME280;44751;52.236;5.178;2023-02-23T20:50:28;101599.84;;;3.46;100.00
58975;BME280;44751;52.236;5.178;2023-02-23T20:52:59;101601.25;;;3.39;100.00
58975;BME280;44751;52.236;5.178;2023-02-23T20:55:27;101603.59;;;3.43;100.00
58975;BME280;44751;52.236;5.178;2023-02-23T20:58:05;101604.25;;;3.34;100.00
58975;BME280;44751;52.236;5.178;2023-02-23T21:00:32;101603.53;;;3.32;100.00
58975;BME280;44751;52.236;5.178;2023-02-23T21:03:01;101607.41;;;3.15;100.00
58975;BME280;44751;52.236;5.178;2023-02-23T21:05:31;101595.38;;;3.09;100.00
58975;BME280;44751;52.236;5.178;2023-02-23T21:08:14;101598.03;;;3.09;100.00
58975;BME280;44751;52.236;5.178;2023-02-23T21:10:41;101586.00;;;3.03;100.00
58975;BME280;44751;52.236;5.178;2023-02-23T21:13:12;101600.09;;;3.05;100.00
58975;BME280;44751;52.236;5.178;2023-02-23T21:15:40;101594.69;;;2.94;100.00
58975;BME280;44751;52.236;5.178;2023-02-23T21:18:08;101579.78;;;2.91;100.00
58975;BME280;44751;52.236;5.178;2023-02-23T21:20:39;101589.16;;;2.84;100.00
58975;BME280;44751;52.236;5.178;2023-02-23T21:23:06;101585.63;;;2.83;100.00
58975;BME280;44751;52.236;5.178;2023-02-23T21:25:44;101578.91;;;2.91;100.00
58975;BME280;44751;52.236;5.178;2023-02-23T21:28:14;101580.88;;;2.76;100.00
58975;BME280;44751;52.236;5.178;2023-02-23T21:30:42;101574.16;;;2.70;100.00
58975;BME280;44751;52.236;5.178;2023-02-23T21:33:08;101589.53;;;2.66;100.00
58975;BME280;44751;52.236;5.178;2023-02-23T21:35:41;101577.03;;;2.67;100.00
58975;BME280;44751;52.236;5.178;2023-02-23T21:38:08;101576.22;;;2.53;100.00
58975;BME280;44751;52.236;5.178;2023-02-23T21:40:34;101571.19;;;2.49;100.00
58975;BME280;44751;52.236;5.178;2023-02-23T21:43:13;101570.34;;;2.48;100.00
58975;BME280;44751;52.236;5.178;2023-02-23T21:45:40;101576.97;;;2.42;100.00
58975;BME280;44751;52.236;5.178;2023-02-23T21:48:11;101579.63;;;2.29;100.00
58975;BME280;44751;52.236;5.178;2023-02-23T21:50:41;101576.56;;;2.23;100.00
58975;BME280;44751;52.236;5.178;2023-02-23T21:53:08;101578.66;;;2.17;100.00
58975;BME280;44751;52.236;5.178;2023-02-23T21:55:38;101581.63;;;2.26;100.00
58975;BME280;44751;52.236;5.178;2023-02-23T21:58:05;101581.22;;;2.19;100.00
58975;BME280;44751;52.236;5.178;2023-02-23T22:00:35;101573.97;;;2.08;100.00
58975;BME280;44751;52.236;5.178;2023-02-23T22:03:03;101575.03;;;2.05;100.00
58975;BME280;44751;52.236;5.178;2023-02-23T22:05:32;101575.91;;;2.06;100.00
58975;BME280;44751;52.236;5.178;2023-02-23T22:07:59;101581.97;;;2.08;100.00
58975;BME280;44751;52.236;5.178;2023-02-23T22:10:26;101573.44;;;2.03;100.00
58975;BME280;44751;52.236;5.178;2023-02-23T22:12:54;101570.91;;;2.14;100.00
58975;BME280;44751;52.236;5.178;2023-02-23T22:15:24;101573.34;;;2.17;100.00
58975;BME280;44751;52.236;5.178;2023-02-23T22:17:52;101571.09;;;1.98;100.00
58975;BME280;44751;52.236;5.178;2023-02-23T22:20:19;101584.09;;;2.03;100.00
58975;BME280;44751;52.236;5.178;2023-02-23T22:22:47;101589.00;;;1.96;100.00
58975;BME280;44751;52.236;5.178;2023-02-23T22:25:15;101577.56;;;1.81;100.00
58975;BME280;44751;52.236;5.178;2023-02-23T22:27:52;101578.53;;;1.80;100.00
58975;BME280;44751;52.236;5.178;2023-02-23T22:30:21;101570.97;;;1.74;100.00
58975;BME280;44751;52.236;5.178;2023-02-23T22:32:48;101579.81;;;1.87;100.00
58975;BME280;44751;52.236;5.178;2023-02-23T22:35:15;101572.91;;;1.85;100.00
58975;BME280;44751;52.236;5.178;2023-02-23T22:37:42;101556.59;;;1.76;100.00
58975;BME280;44751;52.236;5.178;2023-02-23T22:40:09;101572.22;;;1.81;100.00
58975;BME280;44751;52.236;5.178;2023-02-23T22:42:42;101559.03;;;1.79;100.00
58975;BME280;44751;52.236;5.178;2023-02-23T22:45:20;101563.38;;;1.67;100.00
58975;BME280;44751;52.236;5.178;2023-02-23T22:47:46;101562.41;;;1.68;100.00
58975;BME280;44751;52.236;5.178;2023-02-23T22:50:13;101551.66;;;1.57;100.00
58975;BME280;44751;52.236;5.178;2023-02-23T22:52:44;101554.78;;;1.64;100.00
58975;BME280;44751;52.236;5.178;2023-02-23T22:55:14;101539.78;;;1.76;100.00
58975;BME280;44751;52.236;5.178;2023-02-23T22:57:40;101550.84;;;1.70;100.00
58975;BME280;44751;52.236;5.178;2023-02-23T23:00:08;101541.47;;;1.64;100.00
58975;BME280;44751;52.236;5.178;2023-02-23T23:02:36;101540.41;;;1.66;100.00
58975;BME280;44751;52.236;5.178;2023-02-23T23:05:03;101538.69;;;1.52;100.00
58975;BME280;44751;52.236;5.178;2023-02-23T23:07:32;101541.13;;;1.56;100.00
58975;BME280;44751;52.236;5.178;2023-02-23T23:09:59;101533.56;;;1.49;100.00
58975;BME280;44751;52.236;5.178;2023-02-23T23:12:30;101534.09;;;1.54;100.00
58975;BME280;44751;52.236;5.178;2023-02-23T23:15:01;101534.13;;;1.67;100.00
58975;BME280;44751;52.236;5.178;2023-02-23T23:17:29;101531.38;;;1.69;100.00
58975;BME280;44751;52.236;5.178;2023-02-23T23:19:57;101523.91;;;1.74;100.00
58975;BME280;44751;52.236;5.178;2023-02-23T23:22:26;101524.66;;;1.89;100.00
58975;BME280;44751;52.236;5.178;2023-02-23T23:24:55;101520.84;;;1.93;100.00
58975;BME280;44751;52.236;5.178;2023-02-23T23:27:22;101516.69;;;2.02;100.00
58975;BME280;44751;52.236;5.178;2023-02-23T23:29:50;101512.13;;;2.04;100.00
58975;BME280;44751;52.236;5.178;2023-02-23T23:32:17;101519.34;;;2.02;100.00
58975;BME280;44751;52.236;5.178;2023-02-23T23:34:51;101516.59;;;2.04;100.00
58975;BME280;44751;52.236;5.178;2023-02-23T23:37:21;101509.13;;;2.09;100.00
58975;BME280;44751;52.236;5.178;2023-02-23T23:39:48;101505.63;;;2.09;100.00
58975;BME280;44751;52.236;5.178;2023-02-23T23:42:23;101496.78;;;2.21;100.00
58975;BME280;44751;52.236;5.178;2023-02-23T23:44:50;101494.22;;;2.19;100.00
58975;BME280;44751;52.236;5.178;2023-02-23T23:47:22;101486.25;;;2.06;100.00
58975;BME280;44751;52.236;5.178;2023-02-23T23:49:52;101484.44;;;2.07;100.00
58975;BME280;44751;52.236;5.178;2023-02-23T23:52:21;101481.88;;;2.18;100.00
58975;BME280;44751;52.236;5.178;2023-02-23T23:54:59;101476.13;;;2.12;100.00
58975;BME280;44751;52.236;5.178;2023-02-23T23:57:29;101479.00;;;2.09;100.00
58975;BME280;44751;52.236;5.178;2023-02-23T23:59:56;101472.81;;;2.08;100.00
